sensor_id;sensor_type;location;lat;lon;timestamp;P1;durP1;ratioP1;P2;durP2;ratioP2
18196;SDS011;9224;52.422;13.024;2023-02-08T00:00:58;27.67;;;21.77;;
18196;SDS011;9224;52.422;13.024;2023-02-08T00:03:25;25.40;;;20.67;;
18196;SDS011;9224;52.422;13.024;2023-02-08T00:05:53;26.45;;;20.20;;
18196;SDS011;9224;52.422;13.024;2023-02-08T00:08:19;27.77;;;20.98;;
18196;SDS011;9224;52.422;13.024;2023-02-08T00:10:46;27.63;;;21.60;;
18196;SDS011;9224;52.422;13.024;2023-02-08T00:13:12;28.63;;;21.15;;
18196;SDS011;9224;52.422;13.024;2023-02-08T00:15:41;26.27;;;20.37;;
18196;SDS011;9224;52.422;13.024;2023-02-08T00:18:08;28.08;;;21.48;;
18196;SDS011;9224;52.422;13.024;2023-02-08T00:20:36;27.42;;;21.33;;
18196;SDS011;9224;52.422;13.024;2023-02-08T00:23:03;29.30;;;21.80;;
18196;SDS011;9224;52.422;13.024;2023-02-08T00:25:30;26.13;;;20.55;;
18196;SDS011;9224;52.422;13.024;2023-02-08T00:27:56;26.55;;;21.20;;
18196;SDS011;9224;52.422;13.024;2023-02-08T00:30:23;29.00;;;21.80;;
18196;SDS011;9224;52.422;13.024;2023-02-08T00:32:51;27.00;;;21.03;;
18196;SDS011;9224;52.422;13.024;2023-02-08T00:35:17;27.33;;;20.98;;
18196;SDS011;9224;52.422;13.024;2023-02-08T00:37:44;27.08;;;20.45;;
18196;SDS011;9224;52.422;13.024;2023-02-08T00:40:11;29.70;;;21.63;;
18196;SDS011;9224;52.422;13.024;2023-02-08T00:42:37;26.63;;;21.13;;
18196;SDS011;9224;52.422;13.024;2023-02-08T00:45:04;28.30;;;20.65;;
18196;SDS011;9224;52.422;13.024;2023-02-08T00:47:31;28.10;;;21.35;;
18196;SDS011;9224;52.422;13.024;2023-02-08T00:49:59;26.92;;;20.15;;
18196;SDS011;9224;52.422;13.024;2023-02-08T00:52:26;25.85;;;20.92;;
18196;SDS011;9224;52.422;13.024;2023-02-08T00:54:53;26.92;;;20.60;;
18196;SDS011;9224;52.422;13.024;2023-02-08T00:57:19;27.67;;;20.70;;
18196;SDS011;9224;52.422;13.024;2023-02-08T00:59:46;25.48;;;19.52;;
18196;SDS011;9224;52.422;13.024;2023-02-08T01:02:12;26.95;;;20.08;;
18196;SDS011;9224;52.422;13.024;2023-02-08T01:04:39;27.27;;;20.23;;
18196;SDS011;9224;52.422;13.024;2023-02-08T01:07:07;24.98;;;19.83;;
18196;SDS011;9224;52.422;13.024;2023-02-08T01:09:34;25.15;;;20.90;;
18196;SDS011;9224;52.422;13.024;2023-02-08T01:12:00;24.50;;;20.17;;
18196;SDS011;9224;52.422;13.024;2023-02-08T01:14:27;25.85;;;20.55;;
18196;SDS011;9224;52.422;13.024;2023-02-08T01:16:54;27.42;;;20.15;;
18196;SDS011;9224;52.422;13.024;2023-02-08T01:19:21;25.30;;;20.13;;
18196;SDS011;9224;52.422;13.024;2023-02-08T01:21:47;26.50;;;20.67;;
18196;SDS011;9224;52.422;13.024;2023-02-08T01:24:15;25.60;;;20.50;;
18196;SDS011;9224;52.422;13.024;2023-02-08T01:26:42;29.38;;;21.77;;
18196;SDS011;9224;52.422;13.024;2023-02-08T01:29:09;26.77;;;20.92;;
18196;SDS011;9224;52.422;13.024;2023-02-08T01:31:36;25.17;;;20.37;;
18196;SDS011;9224;52.422;13.024;2023-02-08T01:34:05;25.85;;;20.20;;
18196;SDS011;9224;52.422;13.024;2023-02-08T01:36:32;26.15;;;20.73;;
18196;SDS011;9224;52.422;13.024;2023-02-08T01:39:00;26.00;;;20.30;;
18196;SDS011;9224;52.422;13.024;2023-02-08T01:41:28;27.73;;;20.63;;
18196;SDS011;9224;52.422;13.024;2023-02-08T01:44:01;25.70;;;20.42;;
18196;SDS011;9224;52.422;13.024;2023-02-08T01:46:30;26.52;;;20.38;;
18196;SDS011;9224;52.422;13.024;2023-02-08T01:48:58;27.67;;;20.70;;
18196;SDS011;9224;52.422;13.024;2023-02-08T01:51:27;26.23;;;19.70;;
18196;SDS011;9224;52.422;13.024;2023-02-08T01:53:56;25.57;;;20.00;;
18196;SDS011;9224;52.422;13.024;2023-02-08T01:56:24;26.27;;;19.85;;
18196;SDS011;9224;52.422;13.024;2023-02-08T01:58:54;25.02;;;19.50;;
18196;SDS011;9224;52.422;13.024;2023-02-08T02:01:24;24.83;;;19.52;;
18196;SDS011;9224;52.422;13.024;2023-02-08T02:03:51;24.05;;;19.30;;
18196;SDS011;9224;52.422;13.024;2023-02-08T02:06:20;25.58;;;20.13;;
18196;SDS011;9224;52.422;13.024;2023-02-08T02:08:48;25.25;;;19.38;;
18196;SDS011;9224;52.422;13.024;2023-02-08T02:11:17;28.13;;;19.55;;
18196;SDS011;9224;52.422;13.024;2023-02-08T02:13:44;25.33;;;18.83;;
18196;SDS011;9224;52.422;13.024;2023-02-08T02:16:12;24.77;;;19.83;;
18196;SDS011;9224;52.422;13.024;2023-02-08T02:18:38;24.48;;;19.40;;
18196;SDS011;9224;52.422;13.024;2023-02-08T02:21:11;25.02;;;19.88;;
18196;SDS011;9224;52.422;13.024;2023-02-08T02:30:23;26.57;;;20.23;;
18196;SDS011;9224;52.422;13.024;2023-02-08T02:33:15;24.05;;;18.95;;
18196;SDS011;9224;52.422;13.024;2023-02-08T02:35:51;27.63;;;19.90;;
18196;SDS011;9224;52.422;13.024;2023-02-08T02:38:25;25.63;;;19.85;;
18196;SDS011;9224;52.422;13.024;2023-02-08T02:41:00;24.60;;;19.80;;
18196;SDS011;9224;52.422;13.024;2023-02-08T02:43:32;27.98;;;20.23;;
18196;SDS011;9224;52.422;13.024;2023-02-08T02:46:10;29.23;;;21.83;;
18196;SDS011;9224;52.422;13.024;2023-02-08T02:48:43;29.02;;;22.10;;
18196;SDS011;9224;52.422;13.024;2023-02-08T02:51:14;27.85;;;21.75;;
18196;SDS011;9224;52.422;13.024;2023-02-08T02:53:46;27.58;;;21.83;;
18196;SDS011;9224;52.422;13.024;2023-02-08T02:56:16;29.60;;;22.42;;
18196;SDS011;9224;52.422;13.024;2023-02-08T02:58:45;29.10;;;22.45;;
18196;SDS011;9224;52.422;13.024;2023-02-08T03:01:12;29.58;;;22.65;;
18196;SDS011;9224;52.422;13.024;2023-02-08T03:03:38;31.87;;;24.63;;
18196;SDS011;9224;52.422;13.024;2023-02-08T03:06:29;30.85;;;23.80;;
18196;SDS011;9224;52.422;13.024;2023-02-08T03:12:37;33.77;;;24.20;;
18196;SDS011;9224;52.422;13.024;2023-02-08T03:15:10;31.83;;;24.50;;
18196;SDS011;9224;52.422;13.024;2023-02-08T03:17:47;30.52;;;24.02;;
18196;SDS011;9224;52.422;13.024;2023-02-08T03:20:21;31.40;;;24.98;;
18196;SDS011;9224;52.422;13.024;2023-02-08T03:22:54;31.52;;;24.80;;
18196;SDS011;9224;52.422;13.024;2023-02-08T03:25:26;33.17;;;24.10;;
18196;SDS011;9224;52.422;13.024;2023-02-08T03:27:57;31.88;;;24.75;;
18196;SDS011;9224;52.422;13.024;2023-02-08T03:30:29;33.95;;;25.42;;
18196;SDS011;9224;52.422;13.024;2023-02-08T03:32:59;31.75;;;24.80;;
18196;SDS011;9224;52.422;13.024;2023-02-08T03:35:29;30.77;;;24.73;;
18196;SDS011;9224;52.422;13.024;2023-02-08T03:38:00;33.85;;;25.38;;
18196;SDS011;9224;52.422;13.024;2023-02-08T03:40:30;34.40;;;25.58;;
18196;SDS011;9224;52.422;13.024;2023-02-08T03:43:00;34.35;;;26.08;;
18196;SDS011;9224;52.422;13.024;2023-02-08T03:45:29;36.60;;;26.02;;
18196;SDS011;9224;52.422;13.024;2023-02-08T03:47:59;36.38;;;26.35;;
18196;SDS011;9224;52.422;13.024;2023-02-08T03:50:29;33.40;;;25.80;;
18196;SDS011;9224;52.422;13.024;2023-02-08T03:53:00;35.20;;;26.33;;
18196;SDS011;9224;52.422;13.024;2023-02-08T03:55:28;33.90;;;26.13;;
18196;SDS011;9224;52.422;13.024;2023-02-08T03:57:56;34.72;;;26.20;;
18196;SDS011;9224;52.422;13.024;2023-02-08T04:00:24;35.58;;;26.83;;
18196;SDS011;9224;52.422;13.024;2023-02-08T04:02:52;35.00;;;25.95;;
18196;SDS011;9224;52.422;13.024;2023-02-08T04:05:21;34.47;;;25.83;;
18196;SDS011;9224;52.422;13.024;2023-02-08T04:07:49;31.92;;;25.35;;
18196;SDS011;9224;52.422;13.024;2023-02-08T04:10:17;33.53;;;24.88;;
18196;SDS011;9224;52.422;13.024;2023-02-08T04:12:43;31.77;;;24.02;;
18196;SDS011;9224;52.422;13.024;2023-02-08T04:15:11;32.22;;;23.90;;
18196;SDS011;9224;52.422;13.024;2023-02-08T04:17:38;33.22;;;24.42;;
18196;SDS011;9224;52.422;13.024;2023-02-08T04:20:05;31.70;;;24.33;;
18196;SDS011;9224;52.422;13.024;2023-02-08T04:22:32;35.40;;;24.93;;
18196;SDS011;9224;52.422;13.024;2023-02-08T04:24:58;33.25;;;24.88;;
18196;SDS011;9224;52.422;13.024;2023-02-08T04:27:27;32.05;;;23.77;;
18196;SDS011;9224;52.422;13.024;2023-02-08T04:29:53;32.13;;;23.67;;
18196;SDS011;9224;52.422;13.024;2023-02-08T04:32:20;32.00;;;24.48;;
18196;SDS011;9224;52.422;13.024;2023-02-08T04:34:46;32.58;;;24.88;;
18196;SDS011;9224;52.422;13.024;2023-02-08T04:37:13;31.52;;;24.25;;
18196;SDS011;9224;52.422;13.024;2023-02-08T04:39:39;33.40;;;25.58;;
18196;SDS011;9224;52.422;13.024;2023-02-08T04:42:07;34.77;;;25.40;;
18196;SDS011;9224;52.422;13.024;2023-02-08T04:44:35;33.22;;;25.20;;
18196;SDS011;9224;52.422;13.024;2023-02-08T04:47:02;34.27;;;25.03;;
18196;SDS011;9224;52.422;13.024;2023-02-08T04:49:28;33.67;;;26.00;;
18196;SDS011;9224;52.422;13.024;2023-02-08T04:51:55;35.10;;;25.67;;
18196;SDS011;9224;52.422;13.024;2023-02-08T04:54:21;32.67;;;25.13;;
18196;SDS011;9224;52.422;13.024;2023-02-08T04:56:48;33.25;;;25.33;;
18196;SDS011;9224;52.422;13.024;2023-02-08T04:59:15;33.53;;;26.20;;
18196;SDS011;9224;52.422;13.024;2023-02-08T05:01:43;34.78;;;26.38;;
18196;SDS011;9224;52.422;13.024;2023-02-08T05:04:10;33.92;;;26.38;;
18196;SDS011;9224;52.422;13.024;2023-02-08T05:06:36;35.85;;;26.77;;
18196;SDS011;9224;52.422;13.024;2023-02-08T05:09:05;34.72;;;26.67;;
18196;SDS011;9224;52.422;13.024;2023-02-08T05:11:32;35.38;;;26.20;;
18196;SDS011;9224;52.422;13.024;2023-02-08T05:13:59;35.63;;;27.08;;
18196;SDS011;9224;52.422;13.024;2023-02-08T05:16:26;37.38;;;27.13;;
18196;SDS011;9224;52.422;13.024;2023-02-08T05:18:55;36.03;;;27.08;;
18196;SDS011;9224;52.422;13.024;2023-02-08T05:21:22;35.17;;;26.92;;
18196;SDS011;9224;52.422;13.024;2023-02-08T05:23:48;33.58;;;26.30;;
18196;SDS011;9224;52.422;13.024;2023-02-08T05:26:15;35.67;;;26.40;;
18196;SDS011;9224;52.422;13.024;2023-02-08T05:28:42;36.97;;;27.17;;
18196;SDS011;9224;52.422;13.024;2023-02-08T05:31:10;37.70;;;27.88;;
18196;SDS011;9224;52.422;13.024;2023-02-08T05:33:38;38.10;;;29.43;;
18196;SDS011;9224;52.422;13.024;2023-02-08T05:36:06;39.80;;;29.90;;
18196;SDS011;9224;52.422;13.024;2023-02-08T05:38:33;37.30;;;28.17;;
18196;SDS011;9224;52.422;13.024;2023-02-08T05:41:00;39.08;;;29.80;;
18196;SDS011;9224;52.422;13.024;2023-02-08T05:43:26;38.88;;;29.73;;
18196;SDS011;9224;52.422;13.024;2023-02-08T05:45:53;40.55;;;30.30;;
18196;SDS011;9224;52.422;13.024;2023-02-08T05:48:20;40.35;;;30.33;;
18196;SDS011;9224;52.422;13.024;2023-02-08T05:50:46;43.05;;;31.20;;
18196;SDS011;9224;52.422;13.024;2023-02-08T05:53:14;42.42;;;31.45;;
18196;SDS011;9224;52.422;13.024;2023-02-08T05:55:42;40.88;;;29.60;;
18196;SDS011;9224;52.422;13.024;2023-02-08T05:58:09;40.22;;;30.38;;
18196;SDS011;9224;52.422;13.024;2023-02-08T06:00:36;40.33;;;30.33;;
18196;SDS011;9224;52.422;13.024;2023-02-08T06:03:03;39.78;;;30.40;;
18196;SDS011;9224;52.422;13.024;2023-02-08T06:05:31;41.83;;;30.73;;
18196;SDS011;9224;52.422;13.024;2023-02-08T06:07:58;40.35;;;29.88;;
18196;SDS011;9224;52.422;13.024;2023-02-08T06:10:26;41.80;;;30.40;;
18196;SDS011;9224;52.422;13.024;2023-02-08T06:12:52;48.13;;;36.55;;
18196;SDS011;9224;52.422;13.024;2023-02-08T06:15:19;47.92;;;35.22;;
18196;SDS011;9224;52.422;13.024;2023-02-08T06:17:46;39.25;;;30.73;;
18196;SDS011;9224;52.422;13.024;2023-02-08T06:20:12;41.05;;;30.10;;
18196;SDS011;9224;52.422;13.024;2023-02-08T06:22:39;40.85;;;29.17;;
18196;SDS011;9224;52.422;13.024;2023-02-08T06:25:06;39.87;;;29.43;;
18196;SDS011;9224;52.422;13.024;2023-02-08T06:27:34;39.78;;;29.70;;
18196;SDS011;9224;52.422;13.024;2023-02-08T06:30:01;38.45;;;29.50;;
18196;SDS011;9224;52.422;13.024;2023-02-08T06:32:28;41.38;;;30.17;;
18196;SDS011;9224;52.422;13.024;2023-02-08T06:34:54;39.90;;;29.80;;
18196;SDS011;9224;52.422;13.024;2023-02-08T06:37:21;41.13;;;30.57;;
18196;SDS011;9224;52.422;13.024;2023-02-08T06:39:48;44.08;;;30.17;;
18196;SDS011;9224;52.422;13.024;2023-02-08T06:42:15;39.65;;;29.83;;
18196;SDS011;9224;52.422;13.024;2023-02-08T06:44:42;39.90;;;29.25;;
18196;SDS011;9224;52.422;13.024;2023-02-08T06:47:10;39.20;;;29.15;;
18196;SDS011;9224;52.422;13.024;2023-02-08T06:49:37;38.15;;;29.33;;
18196;SDS011;9224;52.422;13.024;2023-02-08T06:52:04;38.05;;;29.63;;
18196;SDS011;9224;52.422;13.024;2023-02-08T06:54:30;38.95;;;28.55;;
18196;SDS011;9224;52.422;13.024;2023-02-08T06:56:57;38.72;;;28.55;;
18196;SDS011;9224;52.422;13.024;2023-02-08T06:59:23;37.65;;;27.73;;
18196;SDS011;9224;52.422;13.024;2023-02-08T07:01:51;35.70;;;28.13;;
18196;SDS011;9224;52.422;13.024;2023-02-08T07:04:18;38.60;;;29.23;;
18196;SDS011;9224;52.422;13.024;2023-02-08T07:06:46;39.83;;;30.42;;
18196;SDS011;9224;52.422;13.024;2023-02-08T07:09:13;38.95;;;29.50;;
18196;SDS011;9224;52.422;13.024;2023-02-08T07:11:40;38.97;;;28.30;;
18196;SDS011;9224;52.422;13.024;2023-02-08T07:14:06;40.70;;;28.95;;
18196;SDS011;9224;52.422;13.024;2023-02-08T07:16:35;36.88;;;28.27;;
18196;SDS011;9224;52.422;13.024;2023-02-08T07:19:03;39.10;;;28.75;;
18196;SDS011;9224;52.422;13.024;2023-02-08T07:21:30;39.25;;;29.05;;
18196;SDS011;9224;52.422;13.024;2023-02-08T07:23:57;52.33;;;35.53;;
18196;SDS011;9224;52.422;13.024;2023-02-08T07:26:23;46.85;;;33.58;;
18196;SDS011;9224;52.422;13.024;2023-02-08T07:28:50;49.10;;;39.97;;
18196;SDS011;9224;52.422;13.024;2023-02-08T07:31:16;45.53;;;35.57;;
18196;SDS011;9224;52.422;13.024;2023-02-08T07:33:43;37.92;;;28.92;;
18196;SDS011;9224;52.422;13.024;2023-02-08T07:36:11;37.78;;;27.60;;
18196;SDS011;9224;52.422;13.024;2023-02-08T07:38:38;36.20;;;28.10;;
18196;SDS011;9224;52.422;13.024;2023-02-08T07:41:05;35.95;;;27.48;;
18196;SDS011;9224;52.422;13.024;2023-02-08T07:43:33;37.83;;;27.58;;
18196;SDS011;9224;52.422;13.024;2023-02-08T07:46:03;34.63;;;27.27;;
18196;SDS011;9224;52.422;13.024;2023-02-08T07:48:30;39.83;;;28.38;;
18196;SDS011;9224;52.422;13.024;2023-02-08T07:50:57;39.80;;;28.90;;
18196;SDS011;9224;52.422;13.024;2023-02-08T07:53:25;38.00;;;27.95;;
18196;SDS011;9224;52.422;13.024;2023-02-08T07:55:52;39.42;;;27.75;;
18196;SDS011;9224;52.422;13.024;2023-02-08T07:58:18;36.90;;;26.60;;
18196;SDS011;9224;52.422;13.024;2023-02-08T08:00:45;37.20;;;26.80;;
18196;SDS011;9224;52.422;13.024;2023-02-08T08:03:11;46.58;;;28.73;;
18196;SDS011;9224;52.422;13.024;2023-02-08T08:05:39;41.65;;;30.15;;
18196;SDS011;9224;52.422;13.024;2023-02-08T08:08:06;36.13;;;27.13;;
18196;SDS011;9224;52.422;13.024;2023-02-08T08:10:34;35.30;;;26.73;;
18196;SDS011;9224;52.422;13.024;2023-02-08T08:13:01;37.65;;;27.08;;
18196;SDS011;9224;52.422;13.024;2023-02-08T08:15:27;37.55;;;26.90;;
18196;SDS011;9224;52.422;13.024;2023-02-08T08:17:54;33.43;;;27.20;;
18196;SDS011;9224;52.422;13.024;2023-02-08T08:20:21;37.15;;;27.08;;
18196;SDS011;9224;52.422;13.024;2023-02-08T08:22:48;36.58;;;27.52;;
18196;SDS011;9224;52.422;13.024;2023-02-08T08:25:15;34.55;;;26.50;;
18196;SDS011;9224;52.422;13.024;2023-02-08T08:27:43;35.92;;;27.13;;
18196;SDS011;9224;52.422;13.024;2023-02-08T08:30:10;33.60;;;26.88;;
18196;SDS011;9224;52.422;13.024;2023-02-08T08:32:39;37.22;;;26.90;;
18196;SDS011;9224;52.422;13.024;2023-02-08T08:35:06;35.67;;;28.02;;
18196;SDS011;9224;52.422;13.024;2023-02-08T08:37:33;44.45;;;32.08;;
18196;SDS011;9224;52.422;13.024;2023-02-08T08:40:00;69.90;;;44.75;;
18196;SDS011;9224;52.422;13.024;2023-02-08T08:42:27;113.27;;;63.60;;
18196;SDS011;9224;52.422;13.024;2023-02-08T08:44:55;62.55;;;42.13;;
18196;SDS011;9224;52.422;13.024;2023-02-08T08:47:22;45.70;;;32.67;;
18196;SDS011;9224;52.422;13.024;2023-02-08T08:49:49;38.35;;;28.80;;
18196;SDS011;9224;52.422;13.024;2023-02-08T08:52:15;38.40;;;28.50;;
18196;SDS011;9224;52.422;13.024;2023-02-08T08:54:42;37.20;;;28.85;;
18196;SDS011;9224;52.422;13.024;2023-02-08T08:57:08;39.40;;;29.47;;
18196;SDS011;9224;52.422;13.024;2023-02-08T08:59:35;39.65;;;28.65;;
18196;SDS011;9224;52.422;13.024;2023-02-08T09:02:03;37.65;;;28.13;;
18196;SDS011;9224;52.422;13.024;2023-02-08T09:04:30;49.63;;;35.55;;
18196;SDS011;9224;52.422;13.024;2023-02-08T09:06:56;43.13;;;31.17;;
18196;SDS011;9224;52.422;13.024;2023-02-08T09:09:23;41.53;;;30.05;;
18196;SDS011;9224;52.422;13.024;2023-02-08T09:11:49;39.83;;;30.17;;
18196;SDS011;9224;52.422;13.024;2023-02-08T09:14:16;41.73;;;29.17;;
18196;SDS011;9224;52.422;13.024;2023-02-08T09:16:43;73.18;;;36.15;;
18196;SDS011;9224;52.422;13.024;2023-02-08T09:19:13;41.40;;;30.70;;
18196;SDS011;9224;52.422;13.024;2023-02-08T09:21:40;39.03;;;28.95;;
18196;SDS011;9224;52.422;13.024;2023-02-08T09:24:07;36.97;;;28.67;;
18196;SDS011;9224;52.422;13.024;2023-02-08T09:26:34;40.35;;;30.30;;
18196;SDS011;9224;52.422;13.024;2023-02-08T09:29:01;37.55;;;28.85;;
18196;SDS011;9224;52.422;13.024;2023-02-08T09:31:28;38.78;;;29.75;;
18196;SDS011;9224;52.422;13.024;2023-02-08T09:33:56;38.63;;;28.38;;
18196;SDS011;9224;52.422;13.024;2023-02-08T09:36:26;37.70;;;28.25;;
18196;SDS011;9224;52.422;13.024;2023-02-08T09:38:54;36.50;;;27.63;;
18196;SDS011;9224;52.422;13.024;2023-02-08T09:41:27;36.35;;;27.92;;
18196;SDS011;9224;52.422;13.024;2023-02-08T09:44:07;37.67;;;28.13;;
18196;SDS011;9224;52.422;13.024;2023-02-08T09:46:38;36.95;;;27.92;;
18196;SDS011;9224;52.422;13.024;2023-02-08T09:49:08;36.83;;;28.15;;
18196;SDS011;9224;52.422;13.024;2023-02-08T09:51:41;38.88;;;29.55;;
18196;SDS011;9224;52.422;13.024;2023-02-08T09:54:12;35.40;;;27.83;;
18196;SDS011;9224;52.422;13.024;2023-02-08T09:56:42;36.25;;;28.33;;
18196;SDS011;9224;52.422;13.024;2023-02-08T09:59:11;37.63;;;28.40;;
18196;SDS011;9224;52.422;13.024;2023-02-08T10:01:39;37.00;;;28.38;;
18196;SDS011;9224;52.422;13.024;2023-02-08T10:04:07;38.42;;;28.83;;
18196;SDS011;9224;52.422;13.024;2023-02-08T10:06:43;37.53;;;28.77;;
18196;SDS011;9224;52.422;13.024;2023-02-08T10:09:10;36.75;;;28.33;;
18196;SDS011;9224;52.422;13.024;2023-02-08T10:11:46;36.70;;;28.73;;
18196;SDS011;9224;52.422;13.024;2023-02-08T10:14:19;35.57;;;28.13;;
18196;SDS011;9224;52.422;13.024;2023-02-08T10:17:06;38.58;;;28.48;;
18196;SDS011;9224;52.422;13.024;2023-02-08T10:19:48;36.83;;;28.30;;
18196;SDS011;9224;52.422;13.024;2023-02-08T10:22:28;38.22;;;28.92;;
18196;SDS011;9224;52.422;13.024;2023-02-08T10:25:10;37.93;;;28.93;;
18196;SDS011;9224;52.422;13.024;2023-02-08T10:27:47;37.38;;;28.38;;
18196;SDS011;9224;52.422;13.024;2023-02-08T10:30:27;36.47;;;28.20;;
18196;SDS011;9224;52.422;13.024;2023-02-08T10:32:59;36.67;;;27.95;;
18196;SDS011;9224;52.422;13.024;2023-02-08T10:35:28;37.97;;;28.23;;
18196;SDS011;9224;52.422;13.024;2023-02-08T10:38:03;36.58;;;28.45;;
18196;SDS011;9224;52.422;13.024;2023-02-08T10:40:37;37.97;;;28.35;;
18196;SDS011;9224;52.422;13.024;2023-02-08T10:43:10;40.20;;;30.13;;
18196;SDS011;9224;52.422;13.024;2023-02-08T10:45:44;42.25;;;31.40;;
18196;SDS011;9224;52.422;13.024;2023-02-08T10:48:18;38.75;;;29.80;;
18196;SDS011;9224;52.422;13.024;2023-02-08T10:50:53;37.17;;;28.27;;
18196;SDS011;9224;52.422;13.024;2023-02-08T10:53:21;42.60;;;31.15;;
18196;SDS011;9224;52.422;13.024;2023-02-08T10:55:48;39.53;;;29.50;;
18196;SDS011;9224;52.422;13.024;2023-02-08T10:58:17;37.63;;;28.30;;
18196;SDS011;9224;52.422;13.024;2023-02-08T11:00:46;37.63;;;28.52;;
18196;SDS011;9224;52.422;13.024;2023-02-08T11:03:14;37.95;;;27.27;;
18196;SDS011;9224;52.422;13.024;2023-02-08T11:05:42;35.22;;;27.58;;
18196;SDS011;9224;52.422;13.024;2023-02-08T11:08:11;35.67;;;28.20;;
18196;SDS011;9224;52.422;13.024;2023-02-08T11:10:42;36.30;;;26.95;;
18196;SDS011;9224;52.422;13.024;2023-02-08T11:13:15;36.50;;;27.38;;
18196;SDS011;9224;52.422;13.024;2023-02-08T11:15:44;38.35;;;28.45;;
18196;SDS011;9224;52.422;13.024;2023-02-08T11:18:16;36.67;;;27.67;;
18196;SDS011;9224;52.422;13.024;2023-02-08T11:20:46;36.60;;;26.70;;
18196;SDS011;9224;52.422;13.024;2023-02-08T11:23:21;36.33;;;27.77;;
18196;SDS011;9224;52.422;13.024;2023-02-08T11:25:51;35.78;;;27.35;;
18196;SDS011;9224;52.422;13.024;2023-02-08T11:28:25;34.47;;;26.40;;
18196;SDS011;9224;52.422;13.024;2023-02-08T11:30:54;37.83;;;28.63;;
18196;SDS011;9224;52.422;13.024;2023-02-08T11:33:21;35.88;;;27.85;;
18196;SDS011;9224;52.422;13.024;2023-02-08T11:36:00;34.43;;;27.17;;
18196;SDS011;9224;52.422;13.024;2023-02-08T11:38:28;38.33;;;29.40;;
18196;SDS011;9224;52.422;13.024;2023-02-08T11:40:58;36.53;;;29.55;;
18196;SDS011;9224;52.422;13.024;2023-02-08T11:43:26;38.25;;;29.83;;
18196;SDS011;9224;52.422;13.024;2023-02-08T11:45:54;37.88;;;28.58;;
18196;SDS011;9224;52.422;13.024;2023-02-08T11:48:23;37.58;;;29.45;;
18196;SDS011;9224;52.422;13.024;2023-02-08T11:50:52;39.95;;;30.48;;
18196;SDS011;9224;52.422;13.024;2023-02-08T11:53:22;38.95;;;29.67;;
18196;SDS011;9224;52.422;13.024;2023-02-08T11:56:13;37.30;;;29.20;;
18196;SDS011;9224;52.422;13.024;2023-02-08T11:58:46;40.13;;;30.95;;
18196;SDS011;9224;52.422;13.024;2023-02-08T12:01:21;38.63;;;30.73;;
18196;SDS011;9224;52.422;13.024;2023-02-08T12:03:53;47.67;;;31.83;;
18196;SDS011;9224;52.422;13.024;2023-02-08T12:06:24;39.55;;;30.77;;
18196;SDS011;9224;52.422;13.024;2023-02-08T12:08:58;38.28;;;29.95;;
18196;SDS011;9224;52.422;13.024;2023-02-08T12:11:31;40.77;;;31.57;;
18196;SDS011;9224;52.422;13.024;2023-02-08T12:14:19;41.00;;;31.35;;
18196;SDS011;9224;52.422;13.024;2023-02-08T12:20:01;40.08;;;30.77;;
18196;SDS011;9224;52.422;13.024;2023-02-08T12:22:36;40.85;;;31.55;;
18196;SDS011;9224;52.422;13.024;2023-02-08T12:25:09;40.58;;;31.00;;
18196;SDS011;9224;52.422;13.024;2023-02-08T12:27:47;39.47;;;30.33;;
18196;SDS011;9224;52.422;13.024;2023-02-08T12:30:20;38.67;;;30.27;;
18196;SDS011;9224;52.422;13.024;2023-02-08T12:32:54;35.97;;;28.85;;
18196;SDS011;9224;52.422;13.024;2023-02-08T12:35:36;35.95;;;27.80;;
18196;SDS011;9224;52.422;13.024;2023-02-08T12:38:14;34.55;;;28.42;;
18196;SDS011;9224;52.422;13.024;2023-02-08T12:41:07;35.90;;;28.85;;
18196;SDS011;9224;52.422;13.024;2023-02-08T12:43:43;36.67;;;29.27;;
18196;SDS011;9224;52.422;13.024;2023-02-08T12:46:20;35.88;;;27.80;;
18196;SDS011;9224;52.422;13.024;2023-02-08T12:48:57;35.22;;;27.20;;
18196;SDS011;9224;52.422;13.024;2023-02-08T12:51:32;32.90;;;27.02;;
18196;SDS011;9224;52.422;13.024;2023-02-08T12:54:03;33.72;;;28.05;;
18196;SDS011;9224;52.422;13.024;2023-02-08T12:56:35;36.75;;;27.88;;
18196;SDS011;9224;52.422;13.024;2023-02-08T12:59:05;36.30;;;29.48;;
18196;SDS011;9224;52.422;13.024;2023-02-08T13:01:33;35.83;;;28.77;;
18196;SDS011;9224;52.422;13.024;2023-02-08T13:04:03;33.50;;;27.70;;
18196;SDS011;9224;52.422;13.024;2023-02-08T13:06:35;32.97;;;27.33;;
18196;SDS011;9224;52.422;13.024;2023-02-08T13:09:06;31.38;;;26.50;;
18196;SDS011;9224;52.422;13.024;2023-02-08T13:11:39;33.97;;;26.27;;
18196;SDS011;9224;52.422;13.024;2023-02-08T13:14:11;34.50;;;28.42;;
18196;SDS011;9224;52.422;13.024;2023-02-08T13:16:40;31.13;;;24.27;;
18196;SDS011;9224;52.422;13.024;2023-02-08T13:19:17;34.10;;;28.25;;
18196;SDS011;9224;52.422;13.024;2023-02-08T13:21:49;37.15;;;28.27;;
18196;SDS011;9224;52.422;13.024;2023-02-08T13:24:19;34.03;;;28.17;;
18196;SDS011;9224;52.422;13.024;2023-02-08T13:26:51;33.22;;;27.33;;
18196;SDS011;9224;52.422;13.024;2023-02-08T13:29:19;34.83;;;27.75;;
18196;SDS011;9224;52.422;13.024;2023-02-08T13:31:48;34.93;;;26.93;;
18196;SDS011;9224;52.422;13.024;2023-02-08T13:34:19;33.55;;;26.83;;
18196;SDS011;9224;52.422;13.024;2023-02-08T13:36:51;34.10;;;26.17;;
18196;SDS011;9224;52.422;13.024;2023-02-08T13:39:25;31.17;;;25.13;;
18196;SDS011;9224;52.422;13.024;2023-02-08T13:41:56;29.45;;;24.40;;
18196;SDS011;9224;52.422;13.024;2023-02-08T13:44:25;31.43;;;24.63;;
18196;SDS011;9224;52.422;13.024;2023-02-08T13:46:55;33.97;;;26.25;;
18196;SDS011;9224;52.422;13.024;2023-02-08T14:01:13;32.55;;;24.60;;
18196;SDS011;9224;52.422;13.024;2023-02-08T14:03:41;30.30;;;25.33;;
18196;SDS011;9224;52.422;13.024;2023-02-08T14:06:14;35.50;;;27.35;;
18196;SDS011;9224;52.422;13.024;2023-02-08T14:08:44;37.85;;;29.13;;
18196;SDS011;9224;52.422;13.024;2023-02-08T14:11:19;32.08;;;25.23;;
18196;SDS011;9224;52.422;13.024;2023-02-08T14:13:57;29.15;;;24.42;;
18196;SDS011;9224;52.422;13.024;2023-02-08T14:16:29;31.27;;;24.00;;
18196;SDS011;9224;52.422;13.024;2023-02-08T14:18:57;31.52;;;24.10;;
18196;SDS011;9224;52.422;13.024;2023-02-08T14:21:32;30.25;;;23.83;;
18196;SDS011;9224;52.422;13.024;2023-02-08T14:24:03;30.35;;;23.98;;
18196;SDS011;9224;52.422;13.024;2023-02-08T14:26:31;29.43;;;22.93;;
18196;SDS011;9224;52.422;13.024;2023-02-08T14:28:58;30.52;;;23.40;;
18196;SDS011;9224;52.422;13.024;2023-02-08T14:31:38;32.60;;;25.23;;
18196;SDS011;9224;52.422;13.024;2023-02-08T14:34:16;31.08;;;24.90;;
18196;SDS011;9224;52.422;13.024;2023-02-08T14:36:52;29.20;;;23.52;;
18196;SDS011;9224;52.422;13.024;2023-02-08T14:39:25;30.00;;;23.58;;
18196;SDS011;9224;52.422;13.024;2023-02-08T14:41:54;30.30;;;24.08;;
18196;SDS011;9224;52.422;13.024;2023-02-08T14:50:37;32.47;;;26.00;;
18196;SDS011;9224;52.422;13.024;2023-02-08T14:53:18;36.33;;;28.77;;
18196;SDS011;9224;52.422;13.024;2023-02-08T14:55:49;31.20;;;25.65;;
18196;SDS011;9224;52.422;13.024;2023-02-08T14:58:23;30.35;;;25.15;;
18196;SDS011;9224;52.422;13.024;2023-02-08T15:00:53;31.55;;;24.92;;
18196;SDS011;9224;52.422;13.024;2023-02-08T15:03:20;29.25;;;24.27;;
18196;SDS011;9224;52.422;13.024;2023-02-08T15:05:57;29.65;;;23.80;;